createdAt,value
2023-05-17T00:01:47.213Z,7.27
2023-05-17T00:04:14.033Z,7.27
2023-05-17T00:06:41.320Z,7.22
2023-05-17T00:09:08.786Z,7.23
2023-05-17T00:11:35.548Z,7.19
2023-05-17T00:14:02.432Z,7.20
2023-05-17T00:16:29.119Z,7.19
2023-05-17T00:18:55.908Z,7.12
2023-05-17T00:21:22.697Z,7.19
2023-05-17T00:23:49.395Z,7.12
2023-05-17T00:26:16.104Z,7.16
2023-05-17T00:28:43.242Z,7.13
2023-05-17T00:31:09.932Z,7.16
2023-05-17T00:33:36.799Z,7.13
2023-05-17T00:36:03.785Z,7.13
2023-05-17T00:38:30.566Z,7.12
2023-05-17T00:40:57.347Z,7.05
2023-05-17T00:43:26.102Z,7.08
2023-05-17T00:45:52.848Z,7.04
2023-05-17T00:48:21.377Z,7.10
2023-05-17T00:50:49.275Z,7.13
2023-05-17T00:53:16.506Z,7.05
2023-05-17T00:55:44.394Z,7.09
2023-05-17T00:58:15.126Z,7.08
2023-05-17T01:00:43.423Z,7.08
2023-05-17T01:03:11.679Z,7.07
2023-05-17T01:05:38.853Z,7.02
2023-05-17T01:08:05.856Z,7.11
2023-05-17T01:11:07.676Z,7.16
2023-05-17T01:13:42.520Z,7.13
2023-05-17T01:16:27.549Z,7.12
2023-05-17T01:19:09.641Z,7.15
2023-05-17T01:21:51.563Z,7.10
2023-05-17T01:24:33.781Z,7.08
2023-05-17T01:27:05.102Z,7.03
2023-05-17T01:29:35.393Z,7.01
2023-05-17T01:32:05.127Z,7.02
2023-05-17T01:34:32.347Z,7.03
2023-05-17T01:37:00.204Z,6.98
2023-05-17T01:39:28.387Z,6.92
2023-05-17T01:42:18.754Z,6.97
2023-05-17T01:44:50.918Z,7.10
2023-05-17T01:47:53.424Z,7.06
2023-05-17T01:50:24.266Z,6.94
2023-05-17T01:52:59.488Z,6.86
2023-05-17T01:55:35.537Z,6.90
2023-05-17T01:58:06.309Z,6.91
2023-05-17T02:00:33.531Z,6.86
2023-05-17T02:03:00.586Z,6.84
2023-05-17T02:05:27.543Z,6.88
2023-05-17T02:07:54.479Z,6.87
2023-05-17T02:10:21.356Z,6.78
2023-05-17T02:12:48.030Z,6.82
2023-05-17T02:15:16.665Z,6.81
2023-05-17T02:17:43.497Z,6.76
2023-05-17T02:20:11.751Z,6.69
2023-05-17T02:22:39.094Z,6.66
2023-05-17T02:25:07.006Z,6.60
2023-05-17T02:27:33.768Z,6.60
2023-05-17T02:30:02.138Z,6.56
2023-05-17T02:32:29.252Z,6.51
2023-05-17T02:34:56.328Z,6.43
2023-05-17T02:37:23.430Z,6.39
2023-05-17T02:39:50.154Z,6.41
2023-05-17T02:42:17.183Z,6.40
2023-05-17T02:44:44.004Z,6.36
2023-05-17T02:47:10.844Z,6.30
2023-05-17T02:49:37.576Z,6.28
2023-05-17T02:52:04.654Z,6.26
2023-05-17T02:54:31.364Z,6.25
2023-05-17T02:56:58.114Z,6.28
2023-05-17T02:59:24.798Z,6.16
2023-05-17T03:01:51.533Z,6.06
2023-05-17T03:04:20.372Z,6.03
2023-05-17T03:06:47.342Z,6.12
2023-05-17T03:09:14.322Z,6.11
2023-05-17T03:11:42.094Z,6.08
2023-05-17T03:14:16.656Z,6.04
2023-05-17T03:16:43.468Z,6.02
2023-05-17T03:19:10.353Z,6.02
2023-05-17T03:21:37.955Z,5.92
2023-05-17T03:24:05.524Z,5.90
2023-05-17T03:26:33.497Z,5.89
2023-05-17T03:29:00.265Z,5.82
2023-05-17T03:31:27.557Z,5.79
2023-05-17T03:33:54.469Z,5.88
2023-05-17T03:36:21.942Z,5.88
2023-05-17T03:38:48.791Z,5.91
2023-05-17T03:41:16.175Z,5.88
2023-05-17T03:43:43.008Z,5.79
2023-05-17T03:46:12.239Z,5.75
2023-05-17T03:48:39.002Z,5.76
2023-05-17T03:51:06.044Z,5.75
2023-05-17T03:53:33.640Z,5.64
2023-05-17T03:56:01.365Z,5.60
2023-05-17T03:58:28.783Z,5.51
2023-05-17T04:00:55.485Z,5.44
2023-05-17T04:03:22.151Z,5.41
2023-05-17T04:05:48.926Z,5.39
2023-05-17T04:08:15.636Z,5.44
2023-05-17T04:10:42.483Z,5.51
2023-05-17T04:13:09.710Z,5.51
2023-05-17T04:15:37.783Z,5.53
2023-05-17T04:18:05.858Z,5.56
2023-05-17T04:20:32.691Z,5.53
2023-05-17T04:23:00.130Z,5.56
2023-05-17T04:25:30.134Z,5.66
2023-05-17T04:27:57.131Z,5.68
2023-05-17T04:30:24.276Z,5.65
2023-05-17T04:32:51.080Z,5.69
2023-05-17T04:35:17.842Z,5.75
2023-05-17T04:37:48.165Z,5.81
2023-05-17T04:40:20.566Z,5.76
2023-05-17T04:42:47.825Z,5.83
2023-05-17T04:45:15.558Z,5.86
2023-05-17T04:47:42.800Z,5.88
2023-05-17T04:50:09.569Z,5.91
2023-05-17T04:52:36.710Z,6.01
2023-05-17T04:55:05.257Z,6.06
2023-05-17T04:57:31.967Z,6.10
2023-05-17T05:00:10.264Z,6.13
2023-05-17T05:02:40.252Z,6.22
2023-05-17T05:05:09.502Z,6.29
2023-05-17T05:07:36.743Z,6.29
2023-05-17T05:10:04.044Z,6.38
2023-05-17T05:12:30.712Z,6.54
2023-05-17T05:14:59.042Z,6.63
2023-05-17T05:17:27.133Z,6.85
2023-05-17T05:19:53.993Z,7.03
2023-05-17T05:22:20.879Z,7.16
2023-05-17T05:24:47.539Z,7.35
2023-05-17T05:27:14.547Z,7.48
2023-05-17T05:29:42.731Z,7.57
2023-05-17T05:32:11.118Z,7.66
2023-05-17T05:34:45.813Z,7.76
2023-05-17T05:37:13.378Z,7.78
2023-05-17T05:39:40.208Z,7.75
2023-05-17T05:42:09.128Z,7.93
2023-05-17T05:44:35.809Z,8.13
2023-05-17T05:47:02.593Z,8.17
2023-05-17T05:49:29.909Z,8.25
2023-05-17T05:51:56.727Z,8.22
2023-05-17T05:54:25.568Z,8.16
2023-05-17T05:56:52.561Z,8.25
2023-05-17T05:59:20.789Z,8.23
2023-05-17T06:01:47.903Z,8.36
2023-05-17T06:04:14.581Z,8.49
2023-05-17T06:06:41.491Z,8.63
2023-05-17T06:09:12.210Z,8.88
2023-05-17T06:11:39.536Z,9.14
2023-05-17T06:14:06.309Z,9.43
2023-05-17T06:16:33.068Z,9.62
2023-05-17T06:19:00.415Z,9.65
2023-05-17T06:21:27.208Z,9.71
2023-05-17T06:23:53.878Z,9.75
2023-05-17T06:26:20.721Z,9.73
2023-05-17T06:28:47.392Z,9.94
2023-05-17T06:31:14.125Z,10.22
2023-05-17T06:33:40.834Z,10.34
2023-05-17T06:36:07.891Z,10.40
2023-05-17T06:38:34.596Z,10.61
2023-05-17T06:41:01.294Z,10.76
2023-05-17T06:43:28.119Z,10.70
2023-05-17T06:45:54.849Z,10.78
2023-05-17T06:48:21.650Z,10.82
2023-05-17T06:50:48.488Z,11.03
2023-05-17T06:53:15.398Z,11.16
2023-05-17T06:55:43.186Z,11.34
2023-05-17T06:58:10.065Z,11.57
2023-05-17T07:00:36.994Z,11.55
2023-05-17T07:03:03.884Z,11.09
2023-05-17T07:05:31.071Z,11.19
2023-05-17T07:08:01.057Z,11.54
2023-05-17T07:10:29.084Z,11.84
2023-05-17T07:12:55.840Z,12.00
2023-05-17T07:15:22.590Z,11.89
2023-05-17T07:17:49.323Z,11.84
2023-05-17T07:20:16.616Z,11.87
2023-05-17T07:22:43.683Z,11.90
2023-05-17T07:25:10.801Z,12.12
2023-05-17T07:27:37.580Z,12.25
2023-05-17T07:30:04.873Z,12.38
2023-05-17T07:32:34.351Z,12.38
2023-05-17T07:35:02.375Z,12.59
2023-05-17T07:37:29.104Z,12.52
2023-05-17T07:39:55.908Z,11.99
2023-05-17T07:42:23.319Z,12.25
2023-05-17T07:44:50.140Z,12.30
2023-05-17T07:47:17.080Z,12.48
2023-05-17T07:49:43.948Z,12.21
2023-05-17T07:52:10.648Z,11.86
2023-05-17T07:54:39.448Z,12.15
2023-05-17T07:57:08.829Z,12.41
2023-05-17T07:59:35.700Z,12.77
2023-05-17T08:02:02.400Z,12.68
2023-05-17T08:04:29.195Z,13.14
2023-05-17T08:06:55.988Z,13.37
2023-05-17T08:09:22.714Z,12.93
2023-05-17T08:11:49.474Z,13.30
2023-05-17T08:14:16.825Z,13.83
2023-05-17T08:16:45.901Z,13.77
2023-05-17T08:19:14.944Z,14.13
2023-05-17T08:21:42.768Z,14.42
2023-05-17T08:24:09.609Z,13.83
2023-05-17T08:26:36.424Z,13.69
2023-05-17T08:29:04.811Z,13.56
2023-05-17T08:31:32.724Z,13.05
2023-05-17T08:33:59.543Z,13.13
2023-05-17T08:36:26.345Z,13.41
2023-05-17T08:38:53.037Z,13.34
2023-05-17T08:41:20.927Z,13.57
2023-05-17T08:43:49.296Z,14.35
2023-05-17T08:46:18.698Z,14.08
2023-05-17T08:48:46.958Z,13.69
2023-05-17T08:51:14.944Z,13.50
2023-05-17T08:53:42.648Z,13.69
2023-05-17T08:56:11.479Z,14.10
2023-05-17T08:58:52.366Z,14.26
2023-05-17T09:01:25.821Z,14.19
2023-05-17T09:03:54.038Z,14.72
2023-05-17T09:06:22.386Z,14.47
2023-05-17T09:08:53.717Z,14.33
2023-05-17T09:11:29.119Z,14.50
2023-05-17T09:14:00.293Z,14.84
2023-05-17T09:16:31.748Z,15.31
2023-05-17T09:18:59.291Z,15.26
2023-05-17T09:21:28.621Z,14.64
2023-05-17T09:24:05.522Z,14.18
2023-05-17T09:26:44.752Z,13.58
2023-05-17T09:29:16.331Z,13.46
2023-05-17T09:31:44.446Z,13.26
2023-05-17T09:34:11.760Z,13.55
2023-05-17T09:36:42.749Z,13.47
2023-05-17T09:39:12.798Z,13.35
2023-05-17T09:41:46.893Z,13.59
2023-05-17T09:44:14.711Z,14.29
2023-05-17T09:46:47.507Z,15.26
2023-05-17T09:49:16.184Z,16.08
2023-05-17T09:51:44.459Z,15.26
2023-05-17T09:54:12.035Z,14.93
2023-05-17T09:56:39.358Z,14.51
2023-05-17T09:59:15.665Z,14.40
2023-05-17T10:01:45.160Z,14.45
2023-05-17T10:04:13.804Z,14.20
2023-05-17T10:09:15.955Z,14.19
2023-05-17T10:11:47.238Z,15.26
2023-05-17T10:14:35.028Z,16.34
2023-05-17T10:17:03.428Z,16.51
2023-05-17T10:19:31.502Z,16.66
2023-05-17T10:22:10.933Z,16.36
2023-05-17T10:24:48.041Z,15.66
2023-05-17T10:27:15.826Z,14.94
2023-05-17T10:29:44.308Z,14.50
2023-05-17T10:32:14.292Z,15.31
2023-05-17T10:34:41.048Z,15.80
2023-05-17T10:37:08.091Z,15.62
2023-05-17T10:39:38.335Z,15.38
2023-05-17T10:42:14.727Z,15.00
2023-05-17T10:44:43.000Z,14.51
2023-05-17T10:47:11.725Z,14.54
2023-05-17T10:49:40.094Z,14.71
2023-05-17T10:52:17.690Z,14.88
2023-05-17T10:54:47.841Z,14.63
2023-05-17T11:00:07.882Z,14.57
2023-05-17T11:02:39.688Z,14.58
2023-05-17T11:05:07.861Z,14.65
2023-05-17T11:07:37.570Z,15.12
2023-05-17T11:10:17.108Z,16.02
2023-05-17T11:12:47.019Z,17.03
2023-05-17T11:15:15.588Z,17.58
2023-05-17T11:17:54.758Z,17.51
2023-05-17T11:20:28.293Z,17.09
2023-05-17T11:23:00.717Z,16.02
2023-05-17T11:25:31.472Z,15.15
2023-05-17T11:27:59.062Z,14.92
2023-05-17T11:30:31.266Z,15.42
2023-05-17T11:33:25.395Z,16.02
2023-05-17T11:36:05.235Z,16.82
2023-05-17T11:38:33.083Z,16.98
2023-05-17T11:43:49.851Z,15.17
2023-05-17T11:46:21.747Z,14.80
2023-05-17T11:48:50.540Z,15.60
2023-05-17T11:51:20.723Z,16.24
2023-05-17T11:53:49.969Z,15.57
2023-05-17T11:56:17.348Z,15.17
2023-05-17T11:58:45.536Z,15.95
2023-05-17T12:01:12.280Z,16.58
2023-05-17T12:03:39.056Z,16.35
2023-05-17T12:06:09.641Z,15.95
2023-05-17T12:08:38.699Z,15.49
2023-05-17T12:11:07.335Z,15.25
2023-05-17T12:13:36.162Z,15.22
2023-05-17T12:16:07.449Z,15.32
2023-05-17T12:18:43.038Z,15.42
2023-05-17T12:21:13.431Z,15.40
2023-05-17T12:23:45.004Z,15.21
2023-05-17T12:26:17.899Z,15.18
2023-05-17T12:28:56.548Z,15.17
2023-05-17T12:31:32.639Z,15.14
2023-05-17T12:34:02.367Z,15.63
2023-05-17T12:36:31.642Z,15.72
2023-05-17T12:38:58.503Z,15.47
2023-05-17T12:41:26.552Z,15.78
2023-05-17T12:44:06.284Z,16.53
2023-05-17T12:46:40.451Z,16.86
2023-05-17T12:49:08.742Z,16.36
2023-05-17T12:51:43.405Z,16.00
2023-05-17T12:54:16.138Z,15.47
2023-05-17T12:56:46.641Z,15.19
2023-05-17T12:59:18.074Z,14.83
2023-05-17T13:01:45.604Z,14.73
2023-05-17T13:04:13.799Z,14.58
2023-05-17T13:06:49.888Z,14.54
2023-05-17T13:09:19.786Z,14.38
2023-05-17T13:11:57.656Z,14.46
2023-05-17T13:14:33.483Z,14.86
2023-05-17T13:17:02.038Z,14.80
2023-05-17T13:19:28.877Z,14.42
2023-05-17T13:21:55.716Z,14.16
2023-05-17T13:24:22.482Z,13.84
2023-05-17T13:26:49.191Z,13.96
2023-05-17T13:29:17.390Z,14.03
2023-05-17T13:31:44.309Z,14.03
2023-05-17T13:34:13.179Z,13.96
2023-05-17T13:36:39.962Z,13.93
2023-05-17T13:39:06.629Z,13.82
2023-05-17T13:41:33.737Z,13.88
2023-05-17T13:44:00.440Z,13.78
2023-05-17T13:46:27.251Z,13.57
2023-05-17T13:48:54.224Z,13.52
2023-05-17T13:51:21.005Z,13.69
2023-05-17T13:53:48.381Z,13.67
2023-05-17T13:56:15.201Z,13.56
2023-05-17T13:58:42.103Z,13.51
2023-05-17T14:01:08.848Z,13.72
2023-05-17T14:03:36.361Z,14.40
2023-05-17T14:06:04.458Z,14.95
2023-05-17T14:08:31.146Z,15.24
2023-05-17T14:10:57.836Z,15.09
2023-05-17T14:13:24.575Z,15.20
2023-05-17T14:15:51.236Z,15.42
2023-05-17T14:18:18.012Z,15.07
2023-05-17T14:20:47.173Z,14.85
2023-05-17T14:23:13.844Z,14.47
2023-05-17T14:25:40.652Z,14.03
2023-05-17T14:28:07.403Z,13.75
2023-05-17T14:30:34.104Z,13.70
2023-05-17T14:33:00.856Z,13.48
2023-05-17T14:35:27.589Z,13.34
2023-05-17T14:37:54.282Z,13.17
2023-05-17T14:40:21.131Z,13.34
2023-05-17T14:42:47.900Z,13.39
2023-05-17T14:45:14.752Z,13.32
2023-05-17T14:47:41.545Z,13.20
2023-05-17T14:50:08.553Z,13.10
2023-05-17T14:52:35.302Z,12.95
2023-05-17T14:55:02.154Z,12.98
2023-05-17T14:57:28.814Z,13.21
2023-05-17T14:59:56.367Z,13.37
2023-05-17T15:02:23.069Z,13.37
2023-05-17T15:04:49.911Z,13.40
2023-05-17T15:07:16.825Z,13.41
2023-05-17T15:09:44.268Z,13.37
2023-05-17T15:12:14.134Z,13.23
2023-05-17T15:14:41.062Z,13.29
2023-05-17T15:17:08.270Z,13.49
2023-05-17T15:19:35.294Z,13.46
2023-05-17T15:22:02.139Z,13.55
2023-05-17T15:24:29.635Z,13.41
2023-05-17T15:26:56.544Z,13.12
2023-05-17T15:29:23.310Z,13.17
2023-05-17T15:31:50.009Z,13.15
2023-05-17T15:34:16.805Z,12.99
2023-05-17T15:36:43.462Z,12.94
2023-05-17T15:39:11.044Z,12.93
2023-05-17T15:41:37.838Z,13.08
2023-05-17T15:44:05.590Z,12.99
2023-05-17T15:46:32.578Z,12.85
2023-05-17T15:48:59.329Z,12.71
2023-05-17T15:51:26.338Z,12.54
2023-05-17T15:53:53.480Z,12.43
2023-05-17T15:56:23.400Z,12.28
2023-05-17T15:58:50.679Z,12.40
2023-05-17T16:01:17.416Z,12.46
2023-05-17T16:03:44.194Z,12.33
2023-05-17T16:06:11.033Z,12.27
2023-05-17T16:08:38.291Z,12.27
2023-05-17T16:11:06.591Z,12.32
2023-05-17T16:13:33.345Z,12.31
2023-05-17T16:16:00.440Z,12.22
2023-05-17T16:18:27.364Z,12.29
2023-05-17T16:20:58.916Z,12.33
2023-05-17T16:23:26.063Z,12.46
2023-05-17T16:25:54.525Z,12.29
2023-05-17T16:28:21.733Z,12.24
2023-05-17T16:30:49.837Z,12.21
2023-05-17T16:33:16.738Z,12.26
2023-05-17T16:35:43.692Z,12.27
2023-05-17T16:38:10.669Z,12.13
2023-05-17T16:40:38.866Z,12.14
2023-05-17T16:43:05.755Z,12.05
2023-05-17T16:45:32.401Z,12.09
2023-05-17T16:47:59.185Z,12.06
2023-05-17T16:50:26.133Z,12.12
2023-05-17T16:52:52.895Z,11.99
2023-05-17T16:55:19.604Z,11.87
2023-05-17T16:57:46.466Z,11.64
2023-05-17T17:00:13.687Z,11.43
2023-05-17T17:02:40.521Z,11.42
2023-05-17T17:05:07.706Z,11.49
2023-05-17T17:07:34.492Z,11.56
2023-05-17T17:10:01.314Z,11.59
2023-05-17T17:12:28.081Z,11.55
2023-05-17T17:14:54.871Z,11.46
2023-05-17T17:17:21.839Z,11.26
2023-05-17T17:19:48.537Z,11.11
2023-05-17T17:22:16.318Z,11.01
2023-05-17T17:24:43.868Z,10.97
2023-05-17T17:27:10.547Z,10.95
2023-05-17T17:29:37.523Z,10.79
2023-05-17T17:32:05.154Z,10.85
2023-05-17T17:34:32.007Z,10.69
2023-05-17T17:36:58.683Z,10.67
2023-05-17T17:39:25.633Z,10.64
2023-05-17T17:41:52.276Z,10.62
2023-05-17T17:44:19.499Z,10.56
2023-05-17T17:46:46.236Z,10.60
2023-05-17T17:49:12.915Z,10.53
2023-05-17T17:51:39.603Z,10.52
2023-05-17T17:54:07.397Z,10.45
2023-05-17T17:56:34.351Z,10.40
2023-05-17T17:59:01.199Z,10.32
2023-05-17T18:01:29.583Z,10.24
2023-05-17T18:03:56.564Z,10.16
2023-05-17T18:06:23.636Z,10.15
2023-05-17T18:08:50.486Z,10.11
2023-05-17T18:11:17.307Z,10.09
2023-05-17T18:13:44.083Z,10.06
2023-05-17T18:16:10.811Z,9.85
2023-05-17T18:18:40.703Z,9.95
2023-05-17T18:21:08.910Z,9.77
2023-05-17T18:23:35.742Z,9.87
2023-05-17T18:26:03.046Z,9.83
2023-05-17T18:28:41.421Z,9.83
2023-05-17T18:31:09.513Z,9.68
2023-05-17T18:33:36.418Z,9.60
2023-05-17T18:36:03.330Z,9.60
2023-05-17T18:38:30.123Z,9.56
2023-05-17T18:40:56.788Z,9.54
2023-05-17T18:43:23.507Z,9.38
2023-05-17T18:45:51.353Z,9.32
2023-05-17T18:48:18.251Z,9.28
2023-05-17T18:50:44.979Z,9.22
2023-05-17T18:53:13.094Z,9.10
2023-05-17T18:55:40.014Z,9.03
2023-05-17T18:58:07.622Z,8.93
2023-05-17T19:00:34.379Z,8.94
2023-05-17T19:03:01.198Z,8.94
2023-05-17T19:05:27.914Z,8.92
2023-05-17T19:07:54.588Z,8.91
2023-05-17T19:10:21.741Z,8.86
2023-05-17T19:12:48.882Z,8.85
2023-05-17T19:15:16.309Z,8.83
2023-05-17T19:17:43.324Z,8.82
2023-05-17T19:20:10.556Z,8.74
2023-05-17T19:22:37.228Z,8.63
2023-05-17T19:25:04.674Z,8.64
2023-05-17T19:27:31.492Z,8.60
2023-05-17T19:29:58.208Z,8.56
2023-05-17T19:32:25.184Z,8.55
2023-05-17T19:34:51.959Z,8.48
2023-05-17T19:37:19.018Z,8.45
2023-05-17T19:39:45.877Z,8.36
2023-05-17T19:42:12.605Z,8.25
2023-05-17T19:44:39.310Z,8.31
2023-05-17T19:47:06.332Z,8.31
2023-05-17T19:49:33.063Z,8.22
2023-05-17T19:52:01.201Z,8.21
2023-05-17T19:54:31.356Z,8.16
2023-05-17T19:56:59.592Z,8.08
2023-05-17T19:59:26.350Z,8.11
2023-05-17T20:04:19.923Z,8.08
2023-05-17T20:06:46.650Z,8.00
2023-05-17T20:09:13.340Z,8.00
2023-05-17T20:11:40.179Z,7.98
2023-05-17T20:14:07.134Z,7.89
2023-05-17T20:16:34.020Z,7.89
2023-05-17T20:19:01.150Z,7.94
2023-05-17T20:21:29.599Z,7.91
2023-05-17T20:24:01.425Z,7.89
2023-05-17T20:26:31.949Z,7.84
2023-05-17T20:28:59.303Z,7.78
2023-05-17T20:31:26.304Z,7.75
2023-05-17T20:33:53.369Z,7.71
2023-05-17T20:36:20.150Z,7.73
2023-05-17T20:38:46.999Z,7.67
2023-05-17T20:41:15.954Z,7.71
2023-05-17T20:43:45.316Z,7.75
2023-05-17T20:46:13.228Z,7.68
2023-05-17T20:48:43.011Z,7.67
2023-05-17T20:51:10.814Z,7.66
2023-05-17T20:53:38.388Z,7.63
2023-05-17T20:56:06.994Z,7.57
2023-05-17T20:58:33.952Z,7.55
2023-05-17T21:01:01.252Z,7.51
2023-05-17T21:03:33.410Z,7.49
2023-05-17T21:06:01.297Z,7.46
2023-05-17T21:08:28.390Z,7.29
2023-05-17T21:10:55.911Z,7.31
2023-05-17T21:13:25.461Z,7.32
2023-05-17T21:15:54.617Z,7.23
2023-05-17T21:18:21.649Z,7.20
2023-05-17T21:20:49.936Z,7.19
2023-05-17T21:23:17.240Z,7.18
2023-05-17T21:25:44.500Z,7.14
2023-05-17T21:28:11.539Z,7.12
2023-05-17T21:30:38.373Z,7.02
2023-05-17T21:33:05.629Z,7.02
2023-05-17T21:35:32.651Z,6.98
2023-05-17T21:37:59.321Z,6.98
2023-05-17T21:40:26.334Z,6.92
2023-05-17T21:42:53.028Z,6.93
2023-05-17T21:45:19.870Z,6.91
2023-05-17T21:47:46.739Z,6.81
2023-05-17T21:50:13.610Z,6.76
2023-05-17T21:52:40.494Z,6.80
2023-05-17T21:55:07.800Z,6.73
2023-05-17T21:57:36.433Z,6.73
2023-05-17T22:00:08.004Z,6.61
2023-05-17T22:02:36.001Z,6.62
2023-05-17T22:05:02.988Z,6.57
2023-05-17T22:07:29.847Z,6.51
2023-05-17T22:09:56.619Z,6.43
2023-05-17T22:12:25.814Z,6.40
2023-05-17T22:14:56.851Z,6.33
2023-05-17T22:17:35.026Z,6.30
2023-05-17T22:20:11.526Z,6.30
2023-05-17T22:22:38.361Z,6.34
2023-05-17T22:25:06.826Z,6.23
2023-05-17T22:27:33.601Z,6.23
2023-05-17T22:30:00.958Z,6.25
2023-05-17T22:32:27.742Z,6.22
2023-05-17T22:34:56.273Z,6.30
2023-05-17T22:37:23.714Z,6.28
2023-05-17T22:39:50.585Z,6.24
2023-05-17T22:42:17.283Z,6.17
2023-05-17T22:44:44.073Z,6.17
2023-05-17T22:47:14.734Z,6.14
2023-05-17T22:49:42.191Z,6.10
2023-05-17T22:52:11.281Z,6.13
2023-05-17T22:54:38.631Z,6.02
2023-05-17T22:57:06.112Z,5.93
2023-05-17T22:59:33.456Z,5.83
2023-05-17T23:02:01.833Z,5.79
2023-05-17T23:04:30.492Z,5.73
2023-05-17T23:07:03.958Z,5.73
2023-05-17T23:09:31.078Z,5.73
2023-05-17T23:12:00.601Z,5.68
2023-05-17T23:14:27.469Z,5.72
2023-05-17T23:16:54.409Z,5.65
2023-05-17T23:19:23.544Z,5.57
2023-05-17T23:21:50.386Z,5.58
2023-05-17T23:24:17.620Z,5.57
2023-05-17T23:26:44.314Z,5.51
2023-05-17T23:29:12.607Z,5.50
2023-05-17T23:31:41.074Z,5.46
2023-05-17T23:34:07.857Z,5.45
2023-05-17T23:36:34.669Z,5.44
2023-05-17T23:39:01.427Z,5.36
2023-05-17T23:41:29.561Z,5.31
2023-05-17T23:43:57.182Z,5.32
2023-05-17T23:46:24.161Z,5.31
2023-05-17T23:48:50.994Z,5.31
2023-05-17T23:51:19.373Z,5.26
2023-05-17T23:53:49.083Z,5.27
2023-05-17T23:56:17.467Z,5.18
2023-05-17T23:58:45.480Z,5.15
